sensor_id;sensor_type;location;lat;lon;timestamp;temperature;humidity
8002;DHT22;4046;48.774;8.732;2022-09-12T00:00:40;12.30;99.90
8002;DHT22;4046;48.774;8.732;2022-09-12T00:03:06;12.50;99.90
8002;DHT22;4046;48.774;8.732;2022-09-12T00:05:31;12.50;99.90
8002;DHT22;4046;48.774;8.732;2022-09-12T00:07:58;12.50;99.90
8002;DHT22;4046;48.774;8.732;2022-09-12T00:10:25;12.50;99.90
8002;DHT22;4046;48.774;8.732;2022-09-12T00:12:51;12.20;99.90
8002;DHT22;4046;48.774;8.732;2022-09-12T00:15:17;12.20;99.90
8002;DHT22;4046;48.774;8.732;2022-09-12T00:17:43;12.20;99.90
8002;DHT22;4046;48.774;8.732;2022-09-12T00:20:09;12.10;99.90
8002;DHT22;4046;48.774;8.732;2022-09-12T00:22:36;12.20;99.90
8002;DHT22;4046;48.774;8.732;2022-09-12T00:25:03;12.20;99.90
8002;DHT22;4046;48.774;8.732;2022-09-12T00:27:29;12.10;99.90
8002;DHT22;4046;48.774;8.732;2022-09-12T00:29:54;12.20;99.90
8002;DHT22;4046;48.774;8.732;2022-09-12T00:32:20;12.30;99.90
8002;DHT22;4046;48.774;8.732;2022-09-12T00:34:46;12.10;99.90
8002;DHT22;4046;48.774;8.732;2022-09-12T00:37:12;12.10;99.90
8002;DHT22;4046;48.774;8.732;2022-09-12T00:39:37;12.20;99.90
8002;DHT22;4046;48.774;8.732;2022-09-12T00:42:03;12.30;99.90
8002;DHT22;4046;48.774;8.732;2022-09-12T00:47:14;12.40;99.90
8002;DHT22;4046;48.774;8.732;2022-09-12T00:50:09;12.40;99.90
8002;DHT22;4046;48.774;8.732;2022-09-12T00:52:46;12.30;99.90
8002;DHT22;4046;48.774;8.732;2022-09-12T00:55:21;12.20;99.90
8002;DHT22;4046;48.774;8.732;2022-09-12T00:57:56;12.40;99.90
8002;DHT22;4046;48.774;8.732;2022-09-12T01:00:25;12.40;99.90
8002;DHT22;4046;48.774;8.732;2022-09-12T01:03:04;12.60;99.90
8002;DHT22;4046;48.774;8.732;2022-09-12T01:05:33;12.80;99.90
8002;DHT22;4046;48.774;8.732;2022-09-12T01:08:03;12.70;99.90
8002;DHT22;4046;48.774;8.732;2022-09-12T01:10:30;12.60;99.90
8002;DHT22;4046;48.774;8.732;2022-09-12T01:12:56;12.60;99.90
8002;DHT22;4046;48.774;8.732;2022-09-12T01:15:22;12.40;99.90
8002;DHT22;4046;48.774;8.732;2022-09-12T01:20:38;11.80;99.90
8002;DHT22;4046;48.774;8.732;2022-09-12T01:29:13;13.00;99.90
8002;DHT22;4046;48.774;8.732;2022-09-12T01:35:20;11.80;99.90
8002;DHT22;4046;48.774;8.732;2022-09-12T01:38:09;11.60;99.90
8002;DHT22;4046;48.774;8.732;2022-09-12T01:48:48;11.10;99.90
8002;DHT22;4046;48.774;8.732;2022-09-12T01:51:25;11.10;99.90
8002;DHT22;4046;48.774;8.732;2022-09-12T01:54:12;11.20;99.90
8002;DHT22;4046;48.774;8.732;2022-09-12T01:56:42;11.30;99.90
8002;DHT22;4046;48.774;8.732;2022-09-12T01:59:25;11.60;99.90
8002;DHT22;4046;48.774;8.732;2022-09-12T02:02:00;11.60;99.90
8002;DHT22;4046;48.774;8.732;2022-09-12T02:04:30;11.40;99.90
8002;DHT22;4046;48.774;8.732;2022-09-12T02:07:10;11.30;99.90
8002;DHT22;4046;48.774;8.732;2022-09-12T02:09:47;11.40;99.90
8002;DHT22;4046;48.774;8.732;2022-09-12T02:12:19;11.40;99.90
8002;DHT22;4046;48.774;8.732;2022-09-12T02:14:49;11.30;99.90
8002;DHT22;4046;48.774;8.732;2022-09-12T02:17:20;11.30;99.90
8002;DHT22;4046;48.774;8.732;2022-09-12T02:19:51;11.30;99.90
8002;DHT22;4046;48.774;8.732;2022-09-12T02:22:20;11.10;99.90
8002;DHT22;4046;48.774;8.732;2022-09-12T02:24:51;10.90;99.90
8002;DHT22;4046;48.774;8.732;2022-09-12T02:27:29;10.80;99.90
8002;DHT22;4046;48.774;8.732;2022-09-12T02:29:57;10.90;99.90
8002;DHT22;4046;48.774;8.732;2022-09-12T02:32:29;10.80;99.90
8002;DHT22;4046;48.774;8.732;2022-09-12T02:35:13;10.70;99.90
8002;DHT22;4046;48.774;8.732;2022-09-12T02:37:50;11.30;99.90
8002;DHT22;4046;48.774;8.732;2022-09-12T02:40:20;10.70;99.90
8002;DHT22;4046;48.774;8.732;2022-09-12T02:42:46;10.70;99.90
8002;DHT22;4046;48.774;8.732;2022-09-12T02:45:12;10.70;99.90
8002;DHT22;4046;48.774;8.732;2022-09-12T02:47:43;10.70;99.90
8002;DHT22;4046;48.774;8.732;2022-09-12T02:50:11;10.70;99.90
8002;DHT22;4046;48.774;8.732;2022-09-12T02:52:37;10.70;99.90
8002;DHT22;4046;48.774;8.732;2022-09-12T02:55:05;10.80;99.90
8002;DHT22;4046;48.774;8.732;2022-09-12T02:57:31;10.70;99.90
8002;DHT22;4046;48.774;8.732;2022-09-12T02:59:59;10.80;99.90
8002;DHT22;4046;48.774;8.732;2022-09-12T03:05:37;10.70;99.90
8002;DHT22;4046;48.774;8.732;2022-09-12T03:08:09;10.80;99.90
8002;DHT22;4046;48.774;8.732;2022-09-12T03:13:35;10.80;99.90
8002;DHT22;4046;48.774;8.732;2022-09-12T03:16:26;10.80;99.90
8002;DHT22;4046;48.774;8.732;2022-09-12T03:19:12;10.70;99.90
8002;DHT22;4046;48.774;8.732;2022-09-12T03:24:54;10.70;99.90
8002;DHT22;4046;48.774;8.732;2022-09-12T03:27:29;10.70;99.90
8002;DHT22;4046;48.774;8.732;2022-09-12T03:29:56;10.70;99.90
8002;DHT22;4046;48.774;8.732;2022-09-12T03:32:48;10.70;99.90
8002;DHT22;4046;48.774;8.732;2022-09-12T03:35:16;10.70;99.90
8002;DHT22;4046;48.774;8.732;2022-09-12T03:37:42;10.60;99.90
8002;DHT22;4046;48.774;8.732;2022-09-12T03:40:10;10.50;99.90
8002;DHT22;4046;48.774;8.732;2022-09-12T03:42:36;10.50;99.90
8002;DHT22;4046;48.774;8.732;2022-09-12T03:45:03;10.50;99.90
8002;DHT22;4046;48.774;8.732;2022-09-12T03:47:29;10.40;99.90
8002;DHT22;4046;48.774;8.732;2022-09-12T03:49:55;10.40;99.90
8002;DHT22;4046;48.774;8.732;2022-09-12T03:52:21;10.50;99.90
8002;DHT22;4046;48.774;8.732;2022-09-12T03:54:47;10.50;99.90
8002;DHT22;4046;48.774;8.732;2022-09-12T03:57:13;10.60;99.90
8002;DHT22;4046;48.774;8.732;2022-09-12T03:59:38;10.50;99.90
8002;DHT22;4046;48.774;8.732;2022-09-12T04:02:04;10.50;99.90
8002;DHT22;4046;48.774;8.732;2022-09-12T04:04:30;10.40;99.90
8002;DHT22;4046;48.774;8.732;2022-09-12T04:06:56;10.40;99.90
8002;DHT22;4046;48.774;8.732;2022-09-12T04:09:21;10.40;99.90
8002;DHT22;4046;48.774;8.732;2022-09-12T04:11:47;10.50;99.90
8002;DHT22;4046;48.774;8.732;2022-09-12T04:14:13;10.50;99.90
8002;DHT22;4046;48.774;8.732;2022-09-12T04:16:38;10.40;99.90
8002;DHT22;4046;48.774;8.732;2022-09-12T04:19:04;10.40;99.90
8002;DHT22;4046;48.774;8.732;2022-09-12T04:21:30;10.50;99.90
8002;DHT22;4046;48.774;8.732;2022-09-12T04:23:56;10.70;99.90
8002;DHT22;4046;48.774;8.732;2022-09-12T04:26:22;10.60;99.90
8002;DHT22;4046;48.774;8.732;2022-09-12T04:28:52;10.40;99.90
8002;DHT22;4046;48.774;8.732;2022-09-12T04:31:18;10.30;99.90
8002;DHT22;4046;48.774;8.732;2022-09-12T04:33:45;10.30;99.90
8002;DHT22;4046;48.774;8.732;2022-09-12T04:36:14;10.30;99.90
8002;DHT22;4046;48.774;8.732;2022-09-12T04:38:42;10.20;99.90
8002;DHT22;4046;48.774;8.732;2022-09-12T04:41:15;10.20;99.90
8002;DHT22;4046;48.774;8.732;2022-09-12T04:43:42;10.20;99.90
8002;DHT22;4046;48.774;8.732;2022-09-12T04:46:09;10.20;99.90
8002;DHT22;4046;48.774;8.732;2022-09-12T04:48:36;10.20;99.90
8002;DHT22;4046;48.774;8.732;2022-09-12T04:51:10;10.20;99.90
8002;DHT22;4046;48.774;8.732;2022-09-12T04:53:36;10.20;99.90
8002;DHT22;4046;48.774;8.732;2022-09-12T04:56:05;10.20;99.90
8002;DHT22;4046;48.774;8.732;2022-09-12T04:58:32;10.20;99.90
8002;DHT22;4046;48.774;8.732;2022-09-12T05:01:27;10.10;99.90
8002;DHT22;4046;48.774;8.732;2022-09-12T05:03:51;10.20;99.90
8002;DHT22;4046;48.774;8.732;2022-09-12T05:06:19;10.10;99.90
8002;DHT22;4046;48.774;8.732;2022-09-12T05:08:46;10.10;99.90
8002;DHT22;4046;48.774;8.732;2022-09-12T05:11:14;10.00;99.90
8002;DHT22;4046;48.774;8.732;2022-09-12T05:13:40;10.10;99.90
8002;DHT22;4046;48.774;8.732;2022-09-12T05:16:07;10.10;99.90
8002;DHT22;4046;48.774;8.732;2022-09-12T05:18:35;10.00;99.90
8002;DHT22;4046;48.774;8.732;2022-09-12T05:21:04;10.00;99.90
8002;DHT22;4046;48.774;8.732;2022-09-12T05:23:30;10.00;99.90
8002;DHT22;4046;48.774;8.732;2022-09-12T05:25:57;10.10;99.90
8002;DHT22;4046;48.774;8.732;2022-09-12T05:28:28;10.10;99.90
8002;DHT22;4046;48.774;8.732;2022-09-12T05:31:03;10.20;99.90
8002;DHT22;4046;48.774;8.732;2022-09-12T05:33:31;10.10;99.90
8002;DHT22;4046;48.774;8.732;2022-09-12T05:35:56;10.20;99.90
8002;DHT22;4046;48.774;8.732;2022-09-12T05:38:22;10.30;99.90
8002;DHT22;4046;48.774;8.732;2022-09-12T05:41:01;10.50;99.90
8002;DHT22;4046;48.774;8.732;2022-09-12T05:43:28;10.40;99.90
8002;DHT22;4046;48.774;8.732;2022-09-12T05:46:00;10.30;99.90
8002;DHT22;4046;48.774;8.732;2022-09-12T05:48:26;10.30;99.90
8002;DHT22;4046;48.774;8.732;2022-09-12T05:51:01;10.30;99.90
8002;DHT22;4046;48.774;8.732;2022-09-12T05:53:29;10.40;99.90
8002;DHT22;4046;48.774;8.732;2022-09-12T05:56:13;10.30;99.90
8002;DHT22;4046;48.774;8.732;2022-09-12T05:58:41;10.20;99.90
8002;DHT22;4046;48.774;8.732;2022-09-12T06:01:12;10.50;99.90
8002;DHT22;4046;48.774;8.732;2022-09-12T06:03:41;10.50;99.90
8002;DHT22;4046;48.774;8.732;2022-09-12T06:06:07;10.30;99.90
8002;DHT22;4046;48.774;8.732;2022-09-12T06:08:34;10.20;99.90
8002;DHT22;4046;48.774;8.732;2022-09-12T06:11:04;10.20;99.90
8002;DHT22;4046;48.774;8.732;2022-09-12T06:13:32;10.10;99.90
8002;DHT22;4046;48.774;8.732;2022-09-12T06:16:12;10.10;99.90
8002;DHT22;4046;48.774;8.732;2022-09-12T06:18:39;10.00;99.90
8002;DHT22;4046;48.774;8.732;2022-09-12T06:21:10;10.00;99.90
8002;DHT22;4046;48.774;8.732;2022-09-12T06:23:38;10.10;99.90
8002;DHT22;4046;48.774;8.732;2022-09-12T06:26:05;9.90;99.90
8002;DHT22;4046;48.774;8.732;2022-09-12T06:28:33;10.00;99.90
8002;DHT22;4046;48.774;8.732;2022-09-12T06:31:10;10.00;99.90
8002;DHT22;4046;48.774;8.732;2022-09-12T06:33:40;10.00;99.90
8002;DHT22;4046;48.774;8.732;2022-09-12T06:36:11;10.10;99.90
8002;DHT22;4046;48.774;8.732;2022-09-12T06:38:38;10.10;99.90
8002;DHT22;4046;48.774;8.732;2022-09-12T06:41:09;10.20;99.90
8002;DHT22;4046;48.774;8.732;2022-09-12T06:43:36;10.20;99.90
8002;DHT22;4046;48.774;8.732;2022-09-12T06:46:02;10.40;99.90
8002;DHT22;4046;48.774;8.732;2022-09-12T06:48:28;10.90;99.90
8002;DHT22;4046;48.774;8.732;2022-09-12T06:53:22;10.60;99.90
8002;DHT22;4046;48.774;8.732;2022-09-12T06:55:57;10.50;99.90
8002;DHT22;4046;48.774;8.732;2022-09-12T06:58:24;10.70;99.90
8002;DHT22;4046;48.774;8.732;2022-09-12T07:00:50;11.00;99.90
8002;DHT22;4046;48.774;8.732;2022-09-12T07:03:16;10.90;99.90
8002;DHT22;4046;48.774;8.732;2022-09-12T07:05:44;10.90;99.90
8002;DHT22;4046;48.774;8.732;2022-09-12T07:08:09;11.10;99.90
8002;DHT22;4046;48.774;8.732;2022-09-12T07:10:35;11.30;99.90
8002;DHT22;4046;48.774;8.732;2022-09-12T07:13:01;11.40;99.90
8002;DHT22;4046;48.774;8.732;2022-09-12T07:15:26;11.60;99.90
8002;DHT22;4046;48.774;8.732;2022-09-12T07:17:52;11.70;99.90
8002;DHT22;4046;48.774;8.732;2022-09-12T07:20:18;12.00;99.90
8002;DHT22;4046;48.774;8.732;2022-09-12T07:22:44;12.40;99.90
8002;DHT22;4046;48.774;8.732;2022-09-12T07:25:10;12.40;99.90
8002;DHT22;4046;48.774;8.732;2022-09-12T07:27:35;12.40;99.90
8002;DHT22;4046;48.774;8.732;2022-09-12T07:30:06;12.80;99.90
8002;DHT22;4046;48.774;8.732;2022-09-12T07:32:32;12.90;99.90
8002;DHT22;4046;48.774;8.732;2022-09-12T07:34:58;13.10;99.90
8002;DHT22;4046;48.774;8.732;2022-09-12T07:37:24;13.20;99.90
8002;DHT22;4046;48.774;8.732;2022-09-12T07:39:50;13.40;99.90
8002;DHT22;4046;48.774;8.732;2022-09-12T07:42:16;13.70;99.90
8002;DHT22;4046;48.774;8.732;2022-09-12T07:44:41;14.00;99.90
8002;DHT22;4046;48.774;8.732;2022-09-12T07:47:08;14.10;99.90
8002;DHT22;4046;48.774;8.732;2022-09-12T07:49:34;14.20;99.90
8002;DHT22;4046;48.774;8.732;2022-09-12T07:52:00;14.50;99.90
8002;DHT22;4046;48.774;8.732;2022-09-12T07:54:26;14.60;99.90
8002;DHT22;4046;48.774;8.732;2022-09-12T07:56:52;14.90;99.90
8002;DHT22;4046;48.774;8.732;2022-09-12T07:59:17;15.10;99.90
8002;DHT22;4046;48.774;8.732;2022-09-12T08:01:43;15.10;99.90
8002;DHT22;4046;48.774;8.732;2022-09-12T08:04:09;15.30;99.90
8002;DHT22;4046;48.774;8.732;2022-09-12T08:06:34;15.30;99.90
8002;DHT22;4046;48.774;8.732;2022-09-12T08:09:01;15.40;99.90
8002;DHT22;4046;48.774;8.732;2022-09-12T08:11:28;15.70;99.90
8002;DHT22;4046;48.774;8.732;2022-09-12T08:13:55;15.70;99.90
8002;DHT22;4046;48.774;8.732;2022-09-12T08:16:26;15.70;99.90
8002;DHT22;4046;48.774;8.732;2022-09-12T08:18:52;15.90;99.90
8002;DHT22;4046;48.774;8.732;2022-09-12T08:21:27;16.10;99.90
8002;DHT22;4046;48.774;8.732;2022-09-12T08:23:55;16.30;99.90
8002;DHT22;4046;48.774;8.732;2022-09-12T08:26:21;16.50;99.90
8002;DHT22;4046;48.774;8.732;2022-09-12T08:28:48;16.50;99.90
8002;DHT22;4046;48.774;8.732;2022-09-12T08:31:16;16.40;99.90
8002;DHT22;4046;48.774;8.732;2022-09-12T08:33:43;16.40;99.90
8002;DHT22;4046;48.774;8.732;2022-09-12T08:38:38;16.80;99.90
8002;DHT22;4046;48.774;8.732;2022-09-12T08:44:37;17.30;99.90
8002;DHT22;4046;48.774;8.732;2022-09-12T08:47:29;17.40;99.90
8002;DHT22;4046;48.774;8.732;2022-09-12T08:57:50;18.80;99.90
8002;DHT22;4046;48.774;8.732;2022-09-12T09:00:16;18.90;99.90
8002;DHT22;4046;48.774;8.732;2022-09-12T09:05:57;19.40;99.90
8002;DHT22;4046;48.774;8.732;2022-09-12T09:08:34;20.00;99.90
8002;DHT22;4046;48.774;8.732;2022-09-12T09:13:44;20.10;99.90
8002;DHT22;4046;48.774;8.732;2022-09-12T09:16:35;20.20;99.90
8002;DHT22;4046;48.774;8.732;2022-09-12T09:19:05;20.40;99.90
8002;DHT22;4046;48.774;8.732;2022-09-12T09:21:41;20.40;99.90
8002;DHT22;4046;48.774;8.732;2022-09-12T09:24:13;20.30;99.90
8002;DHT22;4046;48.774;8.732;2022-09-12T09:26:58;20.90;99.90
8002;DHT22;4046;48.774;8.732;2022-09-12T09:29:42;21.20;99.90
8002;DHT22;4046;48.774;8.732;2022-09-12T09:32:17;21.80;99.90
8002;DHT22;4046;48.774;8.732;2022-09-12T09:34:43;21.70;99.90
8002;DHT22;4046;48.774;8.732;2022-09-12T09:37:20;22.70;99.90
8002;DHT22;4046;48.774;8.732;2022-09-12T09:42:44;22.00;99.90
8002;DHT22;4046;48.774;8.732;2022-09-12T09:45:18;22.00;99.90
8002;DHT22;4046;48.774;8.732;2022-09-12T09:50:30;21.90;99.90
8002;DHT22;4046;48.774;8.732;2022-09-12T09:52:57;22.60;99.90
8002;DHT22;4046;48.774;8.732;2022-09-12T09:55:31;22.80;99.90
8002;DHT22;4046;48.774;8.732;2022-09-12T09:57:58;22.40;99.90
8002;DHT22;4046;48.774;8.732;2022-09-12T10:00:36;22.80;99.90
8002;DHT22;4046;48.774;8.732;2022-09-12T10:05:43;23.20;99.90
8002;DHT22;4046;48.774;8.732;2022-09-12T10:08:39;23.70;99.90
8002;DHT22;4046;48.774;8.732;2022-09-12T10:11:15;23.30;99.90
8002;DHT22;4046;48.774;8.732;2022-09-12T10:16:24;23.90;99.90
8002;DHT22;4046;48.774;8.732;2022-09-12T10:18:51;24.90;99.90
8002;DHT22;4046;48.774;8.732;2022-09-12T10:21:42;24.20;99.90
8002;DHT22;4046;48.774;8.732;2022-09-12T10:24:23;24.20;99.90
8002;DHT22;4046;48.774;8.732;2022-09-12T10:27:13;23.60;99.90
8002;DHT22;4046;48.774;8.732;2022-09-12T10:29:52;23.80;99.90
8002;DHT22;4046;48.774;8.732;2022-09-12T10:32:40;23.80;99.90
8002;DHT22;4046;48.774;8.732;2022-09-12T10:35:15;23.50;99.90
8002;DHT22;4046;48.774;8.732;2022-09-12T10:37:56;23.40;99.90
8002;DHT22;4046;48.774;8.732;2022-09-12T10:40:32;23.50;99.90
8002;DHT22;4046;48.774;8.732;2022-09-12T10:43:01;23.80;99.90
8002;DHT22;4046;48.774;8.732;2022-09-12T10:45:32;24.50;99.90
8002;DHT22;4046;48.774;8.732;2022-09-12T10:48:28;24.30;99.90
8002;DHT22;4046;48.774;8.732;2022-09-12T10:50:55;24.40;99.90
8002;DHT22;4046;48.774;8.732;2022-09-12T10:53:26;23.90;99.90
8002;DHT22;4046;48.774;8.732;2022-09-12T10:56:00;24.20;99.90
8002;DHT22;4046;48.774;8.732;2022-09-12T11:10:12;24.30;99.90
8002;DHT22;4046;48.774;8.732;2022-09-12T11:15:43;24.10;99.90
8002;DHT22;4046;48.774;8.732;2022-09-12T11:26:54;23.90;99.90
8002;DHT22;4046;48.774;8.732;2022-09-12T11:29:51;24.20;99.90
8002;DHT22;4046;48.774;8.732;2022-09-12T11:32:37;24.60;99.90
8002;DHT22;4046;48.774;8.732;2022-09-12T11:38:02;24.50;99.90
8002;DHT22;4046;48.774;8.732;2022-09-12T11:40:53;24.30;99.90
8002;DHT22;4046;48.774;8.732;2022-09-12T11:51:40;24.30;99.90
8002;DHT22;4046;48.774;8.732;2022-09-12T11:59:57;24.10;99.90
8002;DHT22;4046;48.774;8.732;2022-09-12T12:02:29;23.80;99.90
8002;DHT22;4046;48.774;8.732;2022-09-12T12:05:04;23.70;99.90
8002;DHT22;4046;48.774;8.732;2022-09-12T12:07:41;23.60;99.90
8002;DHT22;4046;48.774;8.732;2022-09-12T12:10:33;23.60;99.90
8002;DHT22;4046;48.774;8.732;2022-09-12T12:13:05;23.20;99.90
8002;DHT22;4046;48.774;8.732;2022-09-12T12:15:34;23.30;99.90
8002;DHT22;4046;48.774;8.732;2022-09-12T12:18:15;23.70;99.90
8002;DHT22;4046;48.774;8.732;2022-09-12T12:20:42;23.40;99.90
8002;DHT22;4046;48.774;8.732;2022-09-12T12:25:52;24.20;99.90
8002;DHT22;4046;48.774;8.732;2022-09-12T12:31:15;24.90;99.90
8002;DHT22;4046;48.774;8.732;2022-09-12T12:36:29;25.10;99.90
8002;DHT22;4046;48.774;8.732;2022-09-12T12:38:55;24.30;99.90
8002;DHT22;4046;48.774;8.732;2022-09-12T12:43:52;23.80;99.90
8002;DHT22;4046;48.774;8.732;2022-09-12T12:46:23;23.80;99.90
8002;DHT22;4046;48.774;8.732;2022-09-12T12:49:20;23.90;99.90
8002;DHT22;4046;48.774;8.732;2022-09-12T12:51:57;23.90;99.90
8002;DHT22;4046;48.774;8.732;2022-09-12T12:54:32;24.30;99.90
8002;DHT22;4046;48.774;8.732;2022-09-12T12:57:44;24.00;99.90
8002;DHT22;4046;48.774;8.732;2022-09-12T13:06:01;24.50;99.90
8002;DHT22;4046;48.774;8.732;2022-09-12T13:08:32;24.20;99.90
8002;DHT22;4046;48.774;8.732;2022-09-12T13:11:33;24.20;99.90
8002;DHT22;4046;48.774;8.732;2022-09-12T13:13:56;24.60;99.90
8002;DHT22;4046;48.774;8.732;2022-09-12T13:16:50;25.30;99.90
8002;DHT22;4046;48.774;8.732;2022-09-12T13:19:24;25.40;99.90
8002;DHT22;4046;48.774;8.732;2022-09-12T13:22:06;25.60;99.90
8002;DHT22;4046;48.774;8.732;2022-09-12T13:24:33;25.60;99.90
8002;DHT22;4046;48.774;8.732;2022-09-12T13:26:58;25.40;99.90
8002;DHT22;4046;48.774;8.732;2022-09-12T13:29:26;25.90;99.90
8002;DHT22;4046;48.774;8.732;2022-09-12T13:31:54;26.60;99.90
8002;DHT22;4046;48.774;8.732;2022-09-12T13:34:26;27.10;99.90
8002;DHT22;4046;48.774;8.732;2022-09-12T13:39:49;28.00;99.90
8002;DHT22;4046;48.774;8.732;2022-09-12T13:42:39;28.80;99.90
8002;DHT22;4046;48.774;8.732;2022-09-12T13:45:23;27.60;99.90
8002;DHT22;4046;48.774;8.732;2022-09-12T13:47:55;27.90;99.90
8002;DHT22;4046;48.774;8.732;2022-09-12T13:50:24;27.40;99.90
8002;DHT22;4046;48.774;8.732;2022-09-12T13:52:56;26.70;99.90
8002;DHT22;4046;48.774;8.732;2022-09-12T13:55:30;26.60;99.90
8002;DHT22;4046;48.774;8.732;2022-09-12T13:57:59;26.70;99.90
8002;DHT22;4046;48.774;8.732;2022-09-12T14:00:26;27.00;99.90
8002;DHT22;4046;48.774;8.732;2022-09-12T14:02:53;26.90;99.90
8002;DHT22;4046;48.774;8.732;2022-09-12T14:05:39;26.80;99.90
8002;DHT22;4046;48.774;8.732;2022-09-12T14:08:11;26.10;99.90
8002;DHT22;4046;48.774;8.732;2022-09-12T14:10:41;26.30;99.90
8002;DHT22;4046;48.774;8.732;2022-09-12T14:13:22;27.10;99.90
8002;DHT22;4046;48.774;8.732;2022-09-12T14:15:51;27.50;99.90
8002;DHT22;4046;48.774;8.732;2022-09-12T14:18:25;27.00;99.90
8002;DHT22;4046;48.774;8.732;2022-09-12T14:20:52;26.20;99.90
8002;DHT22;4046;48.774;8.732;2022-09-12T14:23:27;25.50;99.90
8002;DHT22;4046;48.774;8.732;2022-09-12T14:25:54;25.00;99.90
8002;DHT22;4046;48.774;8.732;2022-09-12T14:28:21;24.90;99.90
8002;DHT22;4046;48.774;8.732;2022-09-12T14:31:05;24.60;99.90
8002;DHT22;4046;48.774;8.732;2022-09-12T14:33:51;24.50;99.90
8002;DHT22;4046;48.774;8.732;2022-09-12T14:36:23;24.60;99.90
8002;DHT22;4046;48.774;8.732;2022-09-12T14:38:55;24.70;99.90
8002;DHT22;4046;48.774;8.732;2022-09-12T14:41:28;24.70;99.90
8002;DHT22;4046;48.774;8.732;2022-09-12T14:43:58;24.60;99.90
8002;DHT22;4046;48.774;8.732;2022-09-12T14:46:34;24.50;99.90
8002;DHT22;4046;48.774;8.732;2022-09-12T14:56:56;24.20;99.90
8002;DHT22;4046;48.774;8.732;2022-09-12T14:59:48;24.10;99.90
8002;DHT22;4046;48.774;8.732;2022-09-12T15:02:21;24.20;99.90
8002;DHT22;4046;48.774;8.732;2022-09-12T15:07:50;24.20;99.90
8002;DHT22;4046;48.774;8.732;2022-09-12T15:10:35;24.30;99.90
8002;DHT22;4046;48.774;8.732;2022-09-12T15:15:34;24.50;99.90
8002;DHT22;4046;48.774;8.732;2022-09-12T15:18:01;24.30;99.90
8002;DHT22;4046;48.774;8.732;2022-09-12T15:20:27;23.70;99.90
8002;DHT22;4046;48.774;8.732;2022-09-12T15:22:52;23.70;99.90
8002;DHT22;4046;48.774;8.732;2022-09-12T15:25:18;23.70;99.90
8002;DHT22;4046;48.774;8.732;2022-09-12T15:27:45;23.70;99.90
8002;DHT22;4046;48.774;8.732;2022-09-12T15:30:11;23.70;99.90
8002;DHT22;4046;48.774;8.732;2022-09-12T15:32:39;23.80;99.90
8002;DHT22;4046;48.774;8.732;2022-09-12T15:35:19;24.00;99.90
8002;DHT22;4046;48.774;8.732;2022-09-12T15:37:47;24.00;99.90
8002;DHT22;4046;48.774;8.732;2022-09-12T15:40:13;24.10;99.90
8002;DHT22;4046;48.774;8.732;2022-09-12T15:42:40;23.80;99.90
8002;DHT22;4046;48.774;8.732;2022-09-12T15:45:23;23.90;99.90
8002;DHT22;4046;48.774;8.732;2022-09-12T15:47:50;24.20;99.90
8002;DHT22;4046;48.774;8.732;2022-09-12T15:50:16;23.60;99.90
8002;DHT22;4046;48.774;8.732;2022-09-12T15:52:42;23.30;99.90
8002;DHT22;4046;48.774;8.732;2022-09-12T15:57:41;22.90;99.90
8002;DHT22;4046;48.774;8.732;2022-09-12T16:00:07;22.80;99.90
8002;DHT22;4046;48.774;8.732;2022-09-12T16:02:33;22.90;99.90
8002;DHT22;4046;48.774;8.732;2022-09-12T16:04:58;22.50;99.90
8002;DHT22;4046;48.774;8.732;2022-09-12T16:07:24;22.10;99.90
8002;DHT22;4046;48.774;8.732;2022-09-12T16:09:50;22.00;99.90
8002;DHT22;4046;48.774;8.732;2022-09-12T16:12:15;22.20;99.90
8002;DHT22;4046;48.774;8.732;2022-09-12T16:14:41;22.10;99.90
8002;DHT22;4046;48.774;8.732;2022-09-12T16:17:07;22.00;99.90
8002;DHT22;4046;48.774;8.732;2022-09-12T16:19:32;21.90;99.90
8002;DHT22;4046;48.774;8.732;2022-09-12T16:21:58;21.70;99.90
8002;DHT22;4046;48.774;8.732;2022-09-12T16:24:24;21.70;99.90
8002;DHT22;4046;48.774;8.732;2022-09-12T16:26:49;21.40;99.90
8002;DHT22;4046;48.774;8.732;2022-09-12T16:29:15;21.10;99.90
8002;DHT22;4046;48.774;8.732;2022-09-12T16:31:41;20.80;99.90
8002;DHT22;4046;48.774;8.732;2022-09-12T16:34:06;20.70;99.90
8002;DHT22;4046;48.774;8.732;2022-09-12T16:36:32;20.70;99.90
8002;DHT22;4046;48.774;8.732;2022-09-12T16:38:58;20.60;99.90
8002;DHT22;4046;48.774;8.732;2022-09-12T16:41:24;20.60;99.90
8002;DHT22;4046;48.774;8.732;2022-09-12T16:43:50;20.40;99.90
8002;DHT22;4046;48.774;8.732;2022-09-12T16:46:22;20.30;99.90
8002;DHT22;4046;48.774;8.732;2022-09-12T16:48:52;20.30;99.90
8002;DHT22;4046;48.774;8.732;2022-09-12T16:51:20;20.30;99.90
8002;DHT22;4046;48.774;8.732;2022-09-12T16:53:46;20.20;99.90
8002;DHT22;4046;48.774;8.732;2022-09-12T16:56:13;20.00;99.90
8002;DHT22;4046;48.774;8.732;2022-09-12T16:58:39;19.90;99.90
8002;DHT22;4046;48.774;8.732;2022-09-12T17:01:14;19.90;99.90
8002;DHT22;4046;48.774;8.732;2022-09-12T17:03:41;19.70;99.90
8002;DHT22;4046;48.774;8.732;2022-09-12T17:06:15;19.80;99.90
8002;DHT22;4046;48.774;8.732;2022-09-12T17:08:44;19.70;99.90
8002;DHT22;4046;48.774;8.732;2022-09-12T17:11:13;19.70;99.90
8002;DHT22;4046;48.774;8.732;2022-09-12T17:13:39;19.60;99.90
8002;DHT22;4046;48.774;8.732;2022-09-12T17:16:07;19.50;99.90
8002;DHT22;4046;48.774;8.732;2022-09-12T17:18:34;19.50;99.90
8002;DHT22;4046;48.774;8.732;2022-09-12T17:21:00;19.40;99.90
8002;DHT22;4046;48.774;8.732;2022-09-12T17:23:26;19.30;99.90
8002;DHT22;4046;48.774;8.732;2022-09-12T17:25:52;18.90;99.90
8002;DHT22;4046;48.774;8.732;2022-09-12T17:28:18;18.90;99.90
8002;DHT22;4046;48.774;8.732;2022-09-12T17:30:44;18.90;99.90
8002;DHT22;4046;48.774;8.732;2022-09-12T17:33:11;18.90;99.90
8002;DHT22;4046;48.774;8.732;2022-09-12T17:35:37;19.00;99.90
8002;DHT22;4046;48.774;8.732;2022-09-12T17:38:06;19.10;99.90
8002;DHT22;4046;48.774;8.732;2022-09-12T17:40:34;19.10;99.90
8002;DHT22;4046;48.774;8.732;2022-09-12T17:43:00;19.10;99.90
8002;DHT22;4046;48.774;8.732;2022-09-12T17:45:26;19.00;99.90
8002;DHT22;4046;48.774;8.732;2022-09-12T17:47:53;19.10;99.90
8002;DHT22;4046;48.774;8.732;2022-09-12T17:50:19;19.20;99.90
8002;DHT22;4046;48.774;8.732;2022-09-12T17:52:45;18.90;99.90
8002;DHT22;4046;48.774;8.732;2022-09-12T17:55:11;18.60;99.90
8002;DHT22;4046;48.774;8.732;2022-09-12T17:57:38;18.30;99.90
8002;DHT22;4046;48.774;8.732;2022-09-12T18:00:05;18.10;99.90
8002;DHT22;4046;48.774;8.732;2022-09-12T18:02:31;18.10;99.90
8002;DHT22;4046;48.774;8.732;2022-09-12T18:04:57;18.30;99.90
8002;DHT22;4046;48.774;8.732;2022-09-12T18:07:24;18.40;99.90
8002;DHT22;4046;48.774;8.732;2022-09-12T18:09:49;18.50;99.90
8002;DHT22;4046;48.774;8.732;2022-09-12T18:12:16;18.50;99.90
8002;DHT22;4046;48.774;8.732;2022-09-12T18:14:42;18.30;99.90
8002;DHT22;4046;48.774;8.732;2022-09-12T18:17:09;18.30;99.90
8002;DHT22;4046;48.774;8.732;2022-09-12T18:19:36;18.10;99.90
8002;DHT22;4046;48.774;8.732;2022-09-12T18:22:03;18.10;99.90
8002;DHT22;4046;48.774;8.732;2022-09-12T18:24:32;18.30;99.90
8002;DHT22;4046;48.774;8.732;2022-09-12T18:26:58;18.30;99.90
8002;DHT22;4046;48.774;8.732;2022-09-12T18:29:24;18.20;99.90
8002;DHT22;4046;48.774;8.732;2022-09-12T18:31:52;18.00;99.90
8002;DHT22;4046;48.774;8.732;2022-09-12T18:34:18;17.90;99.90
8002;DHT22;4046;48.774;8.732;2022-09-12T18:36:48;17.90;99.90
8002;DHT22;4046;48.774;8.732;2022-09-12T18:39:15;17.90;99.90
8002;DHT22;4046;48.774;8.732;2022-09-12T18:41:42;17.80;99.90
8002;DHT22;4046;48.774;8.732;2022-09-12T18:44:11;17.90;99.90